createdAt,value
2023-03-12T00:00:50.750Z,97650.97
2023-03-12T00:03:18.095Z,97656.16
2023-03-12T00:05:45.423Z,97652.56
2023-03-12T00:08:13.574Z,97657.34
2023-03-12T00:10:41.196Z,97655.97
2023-03-12T00:13:08.610Z,97654.63
2023-03-12T00:15:38.174Z,97665.50
2023-03-12T00:18:05.838Z,97660.56
2023-03-12T00:20:33.299Z,97659.09
2023-03-12T00:23:00.390Z,97669.06
2023-03-12T00:25:27.532Z,97667.84
2023-03-12T00:27:54.622Z,97668.59
2023-03-12T00:30:22.011Z,97664.09
2023-03-12T00:32:49.272Z,97660.81
2023-03-12T00:35:16.337Z,97667.66
2023-03-12T00:37:43.458Z,97672.28
2023-03-12T00:40:11.513Z,97663.94
2023-03-12T00:42:38.593Z,97666.00
2023-03-12T00:45:07.875Z,97661.41
2023-03-12T00:47:36.094Z,97664.97
2023-03-12T00:50:03.461Z,97661.25
2023-03-12T00:52:30.569Z,97664.50
2023-03-12T00:54:58.904Z,97667.31
2023-03-12T00:57:26.096Z,97663.25
2023-03-12T00:59:53.179Z,97660.28
2023-03-12T01:02:20.598Z,97660.28
2023-03-12T01:04:48.418Z,97670.38
2023-03-12T01:07:16.298Z,97662.78
2023-03-12T01:09:44.903Z,97659.66
2023-03-12T01:12:12.001Z,97665.28
2023-03-12T01:14:39.097Z,97665.53
2023-03-12T01:17:06.471Z,97667.34
2023-03-12T01:19:33.913Z,97662.44
2023-03-12T01:22:01.484Z,97668.22
2023-03-12T01:24:28.571Z,97672.09
2023-03-12T01:26:56.624Z,97674.03
2023-03-12T01:29:23.836Z,97671.47
2023-03-12T01:31:52.136Z,97665.19
2023-03-12T01:34:19.817Z,97676.47
2023-03-12T01:36:47.804Z,97687.94
2023-03-12T01:39:15.061Z,97689.25
2023-03-12T01:41:43.088Z,97684.31
2023-03-12T01:44:14.595Z,97680.75
2023-03-12T01:46:43.790Z,97673.19
2023-03-12T01:49:28.423Z,97673.03
2023-03-12T01:52:07.877Z,97670.31
2023-03-12T01:54:53.106Z,97671.69
2023-03-12T01:57:32.185Z,97676.00
2023-03-12T02:00:15.205Z,97674.63
2023-03-12T02:02:44.163Z,97679.53
2023-03-12T02:05:17.341Z,97674.19
2023-03-12T02:07:44.444Z,97683.25
2023-03-12T02:10:12.216Z,97679.84
2023-03-12T02:12:39.442Z,97684.13
2023-03-12T02:15:07.377Z,97682.00
2023-03-12T02:17:36.229Z,97688.88
2023-03-12T02:20:13.253Z,97682.59
2023-03-12T02:22:42.756Z,97687.38
2023-03-12T02:25:30.353Z,97681.16
2023-03-12T02:27:59.015Z,97680.41
2023-03-12T02:30:27.594Z,97682.78
2023-03-12T02:32:55.087Z,97678.28
2023-03-12T02:35:22.218Z,97672.94
2023-03-12T02:37:55.651Z,97668.03
2023-03-12T02:40:36.676Z,97668.91
2023-03-12T02:43:06.372Z,97680.03
2023-03-12T02:45:34.259Z,97672.44
2023-03-12T02:48:02.529Z,97676.31
2023-03-12T02:50:29.827Z,97677.78
2023-03-12T02:52:56.972Z,97678.88
2023-03-12T02:55:24.328Z,97682.88
2023-03-12T02:57:51.516Z,97680.66
2023-03-12T03:00:19.246Z,97682.59
2023-03-12T03:02:46.270Z,97679.16
2023-03-12T03:05:13.365Z,97682.59
2023-03-12T03:07:40.471Z,97689.72
2023-03-12T03:10:09.776Z,97689.88
2023-03-12T03:12:37.240Z,97689.88
2023-03-12T03:15:04.850Z,97697.47
2023-03-12T03:17:31.895Z,97704.31
2023-03-12T03:19:58.966Z,97700.44
2023-03-12T03:22:26.063Z,97705.78
2023-03-12T03:24:54.197Z,97706.78
2023-03-12T03:27:21.241Z,97707.22
2023-03-12T03:32:15.379Z,97714.28
2023-03-12T03:34:42.452Z,97714.63
2023-03-12T03:37:09.552Z,97717.63
2023-03-12T03:39:36.657Z,97716.22
2023-03-12T03:42:03.878Z,97716.66
2023-03-12T03:44:31.013Z,97716.22
2023-03-12T03:46:58.070Z,97721.91
2023-03-12T03:49:25.112Z,97720.84
2023-03-12T03:51:52.167Z,97715.63
2023-03-12T03:54:19.372Z,97706.72
2023-03-12T03:56:47.557Z,97715.47
2023-03-12T03:59:14.692Z,97719.97
2023-03-12T04:01:41.811Z,97716.88
2023-03-12T04:04:08.930Z,97719.41
2023-03-12T04:06:36.096Z,97714.50
2023-03-12T04:09:03.662Z,97724.16
2023-03-12T04:11:30.746Z,97721.41
2023-03-12T04:13:57.823Z,97717.25
2023-03-12T04:16:25.190Z,97718.97
2023-03-12T04:18:52.587Z,97713.31
2023-03-12T04:21:19.806Z,97710.00
2023-03-12T04:23:46.897Z,97716.66
2023-03-12T04:26:13.964Z,97717.31
2023-03-12T04:28:41.037Z,97724.69
2023-03-12T04:31:08.932Z,97721.38
2023-03-12T04:33:39.641Z,97719.28
2023-03-12T04:36:08.193Z,97716.28
2023-03-12T04:38:35.606Z,97724.31
2023-03-12T04:41:05.156Z,97729.22
2023-03-12T04:43:32.327Z,97728.13
2023-03-12T04:45:59.897Z,97732.34
2023-03-12T04:48:27.191Z,97729.31
2023-03-12T04:50:54.763Z,97734.66
2023-03-12T04:53:22.353Z,97734.25
2023-03-12T04:55:49.571Z,97733.19
2023-03-12T04:58:16.882Z,97732.88
2023-03-12T05:00:44.663Z,97729.75
2023-03-12T05:03:11.779Z,97740.34
2023-03-12T05:05:38.816Z,97731.59
2023-03-12T05:08:06.026Z,97730.81
2023-03-12T05:10:34.172Z,97729.22
2023-03-12T05:13:01.199Z,97730.28
2023-03-12T05:15:28.328Z,97735.94
2023-03-12T05:17:55.362Z,97741.41
2023-03-12T05:20:22.531Z,97738.53
2023-03-12T05:22:49.865Z,97733.31
2023-03-12T05:25:16.947Z,97728.38
2023-03-12T05:27:44.065Z,97728.69
2023-03-12T05:30:11.448Z,97725.28
2023-03-12T05:32:38.561Z,97727.22
2023-03-12T05:35:06.035Z,97728.69
2023-03-12T05:37:33.168Z,97724.19
2023-03-12T05:40:01.681Z,97724.09
2023-03-12T05:42:29.125Z,97723.66
2023-03-12T05:44:56.783Z,97723.66
2023-03-12T05:47:23.846Z,97718.63
2023-03-12T05:49:50.889Z,97723.66
2023-03-12T05:52:18.086Z,97729.88
2023-03-12T05:54:45.130Z,97729.66
2023-03-12T05:57:12.212Z,97728.34
2023-03-12T05:59:39.267Z,97728.25
2023-03-12T06:02:06.449Z,97730.19
2023-03-12T06:04:33.922Z,97725.75
2023-03-12T06:07:00.991Z,97733.34
2023-03-12T06:09:28.382Z,97732.19
2023-03-12T06:11:55.409Z,97728.63
2023-03-12T06:14:22.790Z,97730.44
2023-03-12T06:16:49.853Z,97732.56
2023-03-12T06:19:16.933Z,97726.03
2023-03-12T06:21:44.151Z,97729.03
2023-03-12T06:24:11.381Z,97735.13
2023-03-12T06:26:38.919Z,97730.41
2023-03-12T06:29:06.086Z,97731.03
2023-03-12T06:31:33.599Z,97737.47
2023-03-12T06:34:00.743Z,97740.19
2023-03-12T06:36:28.580Z,97736.94
2023-03-12T06:38:57.299Z,97738.78
2023-03-12T06:41:25.223Z,97740.28
2023-03-12T06:43:52.247Z,97733.28
2023-03-12T06:46:22.279Z,97741.53
2023-03-12T06:48:49.907Z,97738.28
2023-03-12T06:51:17.461Z,97730.13
2023-03-12T06:53:45.402Z,97726.16
2023-03-12T06:56:13.365Z,97735.44
2023-03-12T06:58:40.623Z,97732.16
2023-03-12T07:01:08.299Z,97737.16
2023-03-12T07:03:36.211Z,97726.06
2023-03-12T07:06:03.673Z,97726.53
2023-03-12T07:08:31.152Z,97727.63
2023-03-12T07:11:01.846Z,97730.97
2023-03-12T07:13:30.375Z,97728.63
2023-03-12T07:15:57.924Z,97729.09
2023-03-12T07:18:25.491Z,97729.31
2023-03-12T07:20:53.040Z,97727.25
2023-03-12T07:23:21.034Z,97727.56
2023-03-12T07:25:48.722Z,97725.94
2023-03-12T07:28:16.550Z,97726.53
2023-03-12T07:30:50.123Z,97723.09
2023-03-12T07:33:19.614Z,97734.91
2023-03-12T07:35:50.056Z,97730.25
2023-03-12T07:38:18.508Z,97724.59
2023-03-12T07:40:50.453Z,97717.41
2023-03-12T07:43:20.257Z,97732.00
2023-03-12T07:45:48.189Z,97736.19
2023-03-12T07:48:15.621Z,97714.41
2023-03-12T07:50:42.671Z,97730.50
2023-03-12T07:53:09.759Z,97731.50
2023-03-12T07:55:36.864Z,97729.50
2023-03-12T07:58:04.454Z,97724.09
2023-03-12T08:00:32.024Z,97718.53
2023-03-12T08:02:59.215Z,97712.38
2023-03-12T08:05:27.073Z,97705.16
2023-03-12T08:07:55.028Z,97703.03
2023-03-12T08:10:22.545Z,97712.25
2023-03-12T08:12:49.767Z,97694.97
2023-03-12T08:15:16.928Z,97699.94
2023-03-12T08:17:44.151Z,97695.19
2023-03-12T08:20:12.026Z,97702.53
2023-03-12T08:22:39.878Z,97703.03
2023-03-12T08:25:07.538Z,97701.00
2023-03-12T08:27:35.036Z,97709.09
2023-03-12T08:30:02.126Z,97700.44
2023-03-12T08:32:29.654Z,97708.72
2023-03-12T08:34:58.027Z,97705.47
2023-03-12T08:37:25.317Z,97699.22
2023-03-12T08:39:52.331Z,97696.91
2023-03-12T08:42:19.361Z,97707.69
2023-03-12T08:44:46.430Z,97702.09
2023-03-12T08:47:13.565Z,97702.44
2023-03-12T08:49:40.806Z,97700.56
2023-03-12T08:52:07.906Z,97705.84
2023-03-12T08:54:35.225Z,97702.22
2023-03-12T08:57:02.405Z,97698.84
2023-03-12T08:59:29.634Z,97687.13
2023-03-12T09:01:56.685Z,97690.63
2023-03-12T09:04:23.770Z,97684.56
2023-03-12T09:06:51.106Z,97682.69
2023-03-12T09:09:18.241Z,97681.56
2023-03-12T09:11:45.647Z,97677.69
2023-03-12T09:14:57.668Z,97681.75
2023-03-12T09:16:59.917Z,97672.97
2023-03-12T09:19:27.043Z,97664.72
2023-03-12T09:21:54.113Z,97670.75
2023-03-12T09:24:21.161Z,97661.69
2023-03-12T09:26:48.535Z,97663.69
2023-03-12T09:29:16.871Z,97665.63
2023-03-12T09:31:43.942Z,97668.88
2023-03-12T09:34:10.987Z,97658.09
2023-03-12T09:36:38.056Z,97650.81
2023-03-12T09:39:05.971Z,97653.50
2023-03-12T09:41:38.951Z,97648.66
2023-03-12T09:44:30.758Z,97647.50
2023-03-12T09:47:01.115Z,97639.16
2023-03-12T09:49:35.328Z,97639.69
2023-03-12T09:52:06.004Z,97641.91
2023-03-12T09:54:47.614Z,97629.41
2023-03-12T09:57:24.019Z,97633.31
2023-03-12T09:59:52.192Z,97637.41
2023-03-12T10:02:22.090Z,97622.94
2023-03-12T10:05:21.764Z,97625.22
2023-03-12T10:07:53.745Z,97637.56
2023-03-12T10:10:23.720Z,97638.56
2023-03-12T10:13:04.852Z,97629.53
2023-03-12T10:15:40.258Z,97626.66
2023-03-12T10:18:28.805Z,97607.06
2023-03-12T10:21:22.703Z,97610.31
2023-03-12T10:24:05.722Z,97611.66
2023-03-12T10:26:54.594Z,97618.28
2023-03-12T10:29:33.676Z,97623.75
2023-03-12T10:32:05.621Z,97618.63
2023-03-12T10:34:52.859Z,97611.22
2023-03-12T10:37:22.790Z,97607.06
2023-03-12T10:39:50.498Z,97611.28
2023-03-12T10:42:26.285Z,97611.28
2023-03-12T10:44:59.985Z,97614.72
2023-03-12T10:47:38.277Z,97609.84
2023-03-12T10:50:25.974Z,97617.69
2023-03-12T10:53:22.404Z,97610.78
2023-03-12T10:56:05.928Z,97604.34
2023-03-12T10:58:35.372Z,97599.38
2023-03-12T11:01:04.237Z,97600.88
2023-03-12T11:03:31.624Z,97591.75
2023-03-12T11:06:01.364Z,97585.88
2023-03-12T11:08:34.524Z,97589.84
2023-03-12T11:11:03.147Z,97596.72
2023-03-12T11:13:36.216Z,97591.31
2023-03-12T11:16:25.280Z,97598.16
2023-03-12T11:18:59.781Z,97594.50
2023-03-12T11:21:27.746Z,97589.09
2023-03-12T11:23:59.763Z,97595.53
2023-03-12T11:26:54.428Z,97585.94
2023-03-12T11:29:33.498Z,97579.81
2023-03-12T11:32:40.800Z,97569.47
2023-03-12T11:35:12.499Z,97574.13
2023-03-12T11:38:01.236Z,97579.28
2023-03-12T11:40:44.811Z,97568.97
2023-03-12T11:43:42.769Z,97562.84
2023-03-12T11:46:35.188Z,97556.72
2023-03-12T11:49:26.690Z,97548.59
2023-03-12T11:52:09.656Z,97557.94
2023-03-12T11:55:05.719Z,97556.19
2023-03-12T11:57:57.074Z,97554.75
2023-03-12T12:00:55.680Z,97559.16
2023-03-12T12:03:25.824Z,97557.97
2023-03-12T12:05:58.631Z,97541.22
2023-03-12T12:08:53.601Z,97533.63
2023-03-12T12:11:33.114Z,97533.63
2023-03-12T12:14:41.617Z,97517.66
2023-03-12T12:17:20.219Z,97516.88
2023-03-12T12:20:15.892Z,97512.97
2023-03-12T12:22:55.747Z,97512.97
2023-03-12T12:25:49.910Z,97504.09
2023-03-12T12:28:32.797Z,97498.44
2023-03-12T12:31:21.235Z,97502.84
2023-03-12T12:34:01.525Z,97488.34
2023-03-12T12:36:32.685Z,97472.56
2023-03-12T12:39:06.975Z,97486.13
2023-03-12T12:41:37.198Z,97481.44
2023-03-12T12:44:13.536Z,97480.97
2023-03-12T12:46:47.393Z,97477.00
2023-03-12T12:49:40.337Z,97468.88
2023-03-12T12:52:10.810Z,97467.13
2023-03-12T12:54:43.912Z,97453.09
2023-03-12T12:57:14.976Z,97460.75
2023-03-12T13:00:26.238Z,97453.34
2023-03-12T13:02:55.647Z,97456.53
2023-03-12T13:05:30.912Z,97462.44
2023-03-12T13:07:58.139Z,97466.66
2023-03-12T13:10:34.553Z,97461.47
2023-03-12T13:13:07.644Z,97462.47
2023-03-12T13:15:40.156Z,97460.25
2023-03-12T13:18:09.947Z,97459.75
2023-03-12T13:20:48.313Z,97468.59
2023-03-12T13:23:51.571Z,97462.69
2023-03-12T13:26:25.332Z,97465.63
2023-03-12T13:28:56.925Z,97459.72
2023-03-12T13:31:29.882Z,97457.25
2023-03-12T13:33:59.354Z,97463.38
2023-03-12T13:36:28.646Z,97455.25
2023-03-12T13:39:07.913Z,97458.97
2023-03-12T13:41:37.975Z,97452.09
2023-03-12T13:44:23.261Z,97452.84
2023-03-12T13:47:03.602Z,97447.91
2023-03-12T13:50:00.743Z,97445.47
2023-03-12T13:52:39.945Z,97445.47
2023-03-12T13:55:12.938Z,97450.88
2023-03-12T13:57:47.750Z,97446.44
2023-03-12T14:00:37.637Z,97457.25
2023-03-12T14:03:12.530Z,97453.81
2023-03-12T14:05:51.853Z,97446.19
2023-03-12T14:09:13.818Z,97442.25
2023-03-12T14:11:53.309Z,97432.91
2023-03-12T14:14:54.374Z,97433.16
2023-03-12T14:17:24.524Z,97431.44
2023-03-12T14:20:05.677Z,97430.22
2023-03-12T14:22:36.136Z,97431.69
2023-03-12T14:25:23.996Z,97427.03
2023-03-12T14:27:51.700Z,97424.06
2023-03-12T14:30:25.028Z,97404.84
2023-03-12T14:32:59.578Z,97418.38
2023-03-12T14:35:33.762Z,97423.31
2023-03-12T14:38:06.654Z,97416.44
2023-03-12T14:40:43.802Z,97413.94
2023-03-12T14:43:22.381Z,97411.00
2023-03-12T14:45:57.042Z,97409.53
2023-03-12T14:48:28.298Z,97415.44
2023-03-12T14:50:56.388Z,97405.59
2023-03-12T14:53:31.115Z,97397.97
2023-03-12T14:56:00.007Z,97397.72
2023-03-12T14:58:27.472Z,97395.00
2023-03-12T15:00:57.898Z,97397.22
2023-03-12T15:03:25.953Z,97384.41
2023-03-12T15:05:54.825Z,97376.06
2023-03-12T15:08:21.985Z,97365.97
2023-03-12T15:10:50.799Z,97363.75
2023-03-12T15:13:19.947Z,97357.63
2023-03-12T15:15:49.693Z,97361.06
2023-03-12T15:18:19.426Z,97367.44
2023-03-12T15:20:47.559Z,97353.91
2023-03-12T15:23:16.150Z,97352.44
2023-03-12T15:25:44.760Z,97341.88
2023-03-12T15:28:11.817Z,97335.19
2023-03-12T15:30:39.777Z,97336.44
2023-03-12T15:33:12.602Z,97335.94
2023-03-12T15:36:18.631Z,97333.00
2023-03-12T15:39:14.235Z,97331.25
2023-03-12T15:41:43.851Z,97338.38
2023-03-12T15:44:23.172Z,97343.34
2023-03-12T15:46:52.985Z,97338.66
2023-03-12T15:49:26.118Z,97349.47
2023-03-12T15:52:02.962Z,97360.78
2023-03-12T15:54:30.647Z,97348.72
2023-03-12T15:57:20.814Z,97338.13
2023-03-12T16:00:13.704Z,97335.41
2023-03-12T16:02:50.525Z,97340.09
2023-03-12T16:05:19.172Z,97343.53
2023-03-12T16:07:46.322Z,97340.31
2023-03-12T16:10:18.714Z,97339.56
2023-03-12T16:12:46.298Z,97338.81
2023-03-12T16:15:15.129Z,97342.00
2023-03-12T16:17:43.139Z,97343.97
2023-03-12T16:20:13.330Z,97348.38
2023-03-12T16:22:40.963Z,97351.34
2023-03-12T16:25:10.641Z,97347.13
2023-03-12T16:27:46.343Z,97355.53
2023-03-12T16:30:35.202Z,97366.09
2023-03-12T16:33:08.609Z,97358.19
2023-03-12T16:35:36.309Z,97356.00
2023-03-12T16:38:04.267Z,97355.75
2023-03-12T16:40:35.022Z,97355.03
2023-03-12T16:43:04.582Z,97356.00
2023-03-12T16:45:34.465Z,97360.94
2023-03-12T16:48:04.244Z,97365.59
2023-03-12T16:50:31.925Z,97362.41
2023-03-12T16:52:59.672Z,97362.41
2023-03-12T16:55:29.085Z,97371.00
2023-03-12T16:57:59.335Z,97371.97
2023-03-12T17:00:31.142Z,97364.84
2023-03-12T17:02:59.208Z,97367.06
2023-03-12T17:05:28.255Z,97361.13
2023-03-12T17:07:56.075Z,97358.41
2023-03-12T17:10:23.875Z,97352.00
2023-03-12T17:12:50.906Z,97355.94
2023-03-12T17:15:26.567Z,97349.31
2023-03-12T17:17:59.192Z,97357.66
2023-03-12T17:20:26.360Z,97364.06
2023-03-12T17:22:53.772Z,97366.25
2023-03-12T17:25:24.684Z,97379.31
2023-03-12T17:27:52.439Z,97389.69
2023-03-12T17:30:20.727Z,97396.81
2023-03-12T17:32:48.139Z,97387.66
2023-03-12T17:35:15.833Z,97369.69
2023-03-12T17:37:42.885Z,97370.91
2023-03-12T17:40:10.972Z,97364.25
2023-03-12T17:42:38.832Z,97372.13
2023-03-12T17:45:08.324Z,97398.75
2023-03-12T17:47:36.225Z,97412.06
2023-03-12T17:50:06.175Z,97412.50
2023-03-12T17:52:33.928Z,97389.34
2023-03-12T17:55:01.184Z,97390.06
2023-03-12T17:57:28.316Z,97395.28
2023-03-12T17:59:55.542Z,97410.53
2023-03-12T18:02:22.660Z,97408.31
2023-03-12T18:04:49.910Z,97404.88
2023-03-12T18:07:18.254Z,97415.94
2023-03-12T18:09:45.564Z,97407.53
2023-03-12T18:12:12.680Z,97417.19
2023-03-12T18:14:39.760Z,97413.22
2023-03-12T18:17:08.133Z,97426.78
2023-03-12T18:19:35.682Z,97419.38
2023-03-12T18:22:03.144Z,97426.78
2023-03-12T18:24:30.307Z,97433.19
2023-03-12T18:26:59.193Z,97430.47
2023-03-12T18:29:26.706Z,97432.66
2023-03-12T18:31:53.938Z,97428.50
2023-03-12T18:34:23.285Z,97420.56
2023-03-12T18:36:50.429Z,97421.31
2023-03-12T18:39:17.788Z,97423.03
2023-03-12T18:41:44.943Z,97418.34
2023-03-12T18:44:13.060Z,97428.19
2023-03-12T18:46:40.289Z,97419.06
2023-03-12T18:49:08.693Z,97416.59
2023-03-12T18:51:35.842Z,97419.53
2023-03-12T18:54:03.033Z,97406.91
2023-03-12T18:56:30.264Z,97411.63
2023-03-12T18:58:57.614Z,97417.78
2023-03-12T19:01:24.758Z,97420.75
2023-03-12T19:03:52.148Z,97420.25
2023-03-12T19:06:20.278Z,97431.56
2023-03-12T19:08:47.344Z,97430.56
2023-03-12T19:11:15.897Z,97440.66
2023-03-12T19:13:43.405Z,97434.22
2023-03-12T19:16:12.137Z,97436.88
2023-03-12T19:18:39.673Z,97443.81
2023-03-12T19:21:07.751Z,97440.53
2023-03-12T19:23:35.633Z,97441.28
2023-03-12T19:26:03.462Z,97437.06
2023-03-12T19:28:31.238Z,97445.22
2023-03-12T19:31:02.663Z,97434.06
2023-03-12T19:33:30.345Z,97435.56
2023-03-12T19:35:57.661Z,97433.06
2023-03-12T19:38:25.431Z,97445.84
2023-03-12T19:40:55.449Z,97449.06
2023-03-12T19:43:23.482Z,97446.78
2023-03-12T19:45:51.137Z,97442.56
2023-03-12T19:48:18.706Z,97448.47
2023-03-12T19:50:45.862Z,97441.53
2023-03-12T19:53:13.751Z,97447.91
2023-03-12T19:55:41.191Z,97454.09
2023-03-12T19:58:08.464Z,97438.25
2023-03-12T20:00:36.538Z,97441.69
2023-03-12T20:03:05.071Z,97460.22
2023-03-12T20:05:32.234Z,97462.94
2023-03-12T20:07:59.711Z,97466.63
2023-03-12T20:10:29.580Z,97468.09
2023-03-12T20:12:56.657Z,97457.97
2023-03-12T20:15:23.744Z,97459.97
2023-03-12T20:17:54.621Z,97465.41
2023-03-12T20:20:21.723Z,97452.75
2023-03-12T20:22:48.926Z,97461.38
2023-03-12T20:25:16.037Z,97460.38
2023-03-12T20:27:43.200Z,97469.00
2023-03-12T20:30:10.983Z,97461.31
2023-03-12T20:32:38.128Z,97466.47
2023-03-12T20:35:05.510Z,97457.78
2023-03-12T20:37:32.905Z,97443.72
2023-03-12T20:39:59.929Z,97450.09
2023-03-12T20:42:26.958Z,97453.03
2023-03-12T20:44:54.059Z,97444.66
2023-03-12T20:47:21.145Z,97452.81
2023-03-12T20:49:48.160Z,97445.91
2023-03-12T20:52:15.225Z,97448.84
2023-03-12T20:54:42.396Z,97447.69
2023-03-12T20:57:09.581Z,97438.03
2023-03-12T20:59:36.665Z,97442.50
2023-03-12T21:02:03.748Z,97456.09
2023-03-12T21:04:30.819Z,97459.31
2023-03-12T21:06:57.927Z,97451.91
2023-03-12T21:09:25.252Z,97450.44
2023-03-12T21:11:52.632Z,97455.88
2023-03-12T21:14:19.673Z,97459.56
2023-03-12T21:16:46.924Z,97455.06
2023-03-12T21:19:14.150Z,97459.50
2023-03-12T21:21:41.196Z,97459.72
2023-03-12T21:24:08.606Z,97456.75
2023-03-12T21:26:36.167Z,97450.56
2023-03-12T21:29:03.805Z,97452.50
2023-03-12T21:31:31.112Z,97448.75
2023-03-12T21:33:58.232Z,97435.41
2023-03-12T21:36:25.993Z,97436.56
2023-03-12T21:38:53.267Z,97435.56
2023-03-12T21:41:21.107Z,97433.81
2023-03-12T21:43:48.152Z,97427.34
2023-03-12T21:46:18.797Z,97423.59
2023-03-12T21:48:47.716Z,97430.94
2023-03-12T21:51:15.998Z,97422.53
2023-03-12T21:53:43.098Z,97421.47
2023-03-12T21:56:11.997Z,97416.03
2023-03-12T21:58:39.438Z,97419.97
2023-03-12T22:01:08.805Z,97419.13
2023-03-12T22:03:39.445Z,97409.72
2023-03-12T22:06:07.193Z,97413.66
2023-03-12T22:08:41.653Z,97413.34
2023-03-12T22:11:09.325Z,97404.16
2023-03-12T22:13:36.657Z,97410.34
2023-03-12T22:16:06.862Z,97412.53
2023-03-12T22:18:37.624Z,97404.59
2023-03-12T22:21:05.259Z,97404.59
2023-03-12T22:23:32.638Z,97393.72
2023-03-12T22:26:01.666Z,97398.13
2023-03-12T22:28:28.776Z,97400.34
2023-03-12T22:31:06.624Z,97401.06
2023-03-12T22:33:35.778Z,97395.84
2023-03-12T22:36:11.179Z,97397.56
2023-03-12T22:38:38.405Z,97393.06
2023-03-12T22:41:27.006Z,97390.34
2023-03-12T22:44:03.707Z,97405.94
2023-03-12T22:46:31.535Z,97418.00
2023-03-12T22:49:01.114Z,97414.78
2023-03-12T22:51:30.552Z,97420.97
2023-03-12T22:53:57.779Z,97406.09
2023-03-12T22:56:25.255Z,97406.59
2023-03-12T22:58:52.308Z,97400.84
2023-03-12T23:01:22.229Z,97397.81
2023-03-12T23:03:50.095Z,97393.88
2023-03-12T23:06:22.514Z,97394.09
2023-03-12T23:08:49.957Z,97390.63
2023-03-12T23:11:17.893Z,97389.91
2023-03-12T23:13:45.845Z,97396.28
2023-03-12T23:16:16.098Z,97392.31
2023-03-12T23:18:44.510Z,97385.09
2023-03-12T23:21:14.703Z,97389.31
2023-03-12T23:23:43.558Z,97387.53
2023-03-12T23:26:22.225Z,97374.97
2023-03-12T23:28:52.031Z,97380.16
2023-03-12T23:31:19.463Z,97380.16
2023-03-12T23:33:46.864Z,97372.97
2023-03-12T23:36:16.096Z,97382.59
2023-03-12T23:38:48.307Z,97375.91
2023-03-12T23:41:17.802Z,97367.94
2023-03-12T23:43:46.892Z,97385.97
2023-03-12T23:46:14.463Z,97377.56
2023-03-12T23:48:41.635Z,97373.38
2023-03-12T23:51:11.307Z,97378.84
2023-03-12T23:53:39.517Z,97381.34
2023-03-12T23:56:09.296Z,97376.84
2023-03-12T23:58:36.512Z,97381.03
